createdAt,value
2018-12-08T00:00:54.700Z,30.73
2018-12-08T00:03:22.200Z,28.40
2018-12-08T00:05:49.711Z,25.97
2018-12-08T00:08:17.179Z,23.87
2018-12-08T00:10:44.723Z,24.40
2018-12-08T00:13:12.192Z,23.17
2018-12-08T00:15:39.695Z,22.53
2018-12-08T00:18:07.445Z,24.37
2018-12-08T00:20:34.979Z,22.22
2018-12-08T00:23:02.545Z,23.57
2018-12-08T00:25:30.160Z,24.27
2018-12-08T00:27:57.640Z,22.50
2018-12-08T00:30:36.989Z,22.13
2018-12-08T00:33:04.483Z,19.20
2018-12-08T00:35:32.001Z,19.03
2018-12-08T00:37:59.480Z,17.57
2018-12-08T00:40:27.129Z,16.50
2018-12-08T00:42:54.612Z,17.63
2018-12-08T00:45:22.153Z,18.10
2018-12-08T00:47:49.646Z,17.83
2018-12-08T00:50:17.320Z,18.80
2018-12-08T00:52:45.079Z,16.60
2018-12-08T00:55:12.554Z,18.60
2018-12-08T00:57:40.068Z,17.97
2018-12-08T01:00:07.632Z,17.70
2018-12-08T01:02:35.218Z,16.67
2018-12-08T01:05:02.695Z,16.90
2018-12-08T01:07:30.281Z,16.83
2018-12-08T01:09:57.783Z,15.50
2018-12-08T01:12:25.373Z,16.87
2018-12-08T01:14:52.957Z,15.47
2018-12-08T01:17:20.432Z,15.87
2018-12-08T01:19:47.936Z,15.90
2018-12-08T01:22:21.333Z,16.67
2018-12-08T01:24:48.827Z,16.90
2018-12-08T01:27:16.493Z,16.43
2018-12-08T01:29:43.971Z,18.00
2018-12-08T01:32:11.448Z,16.93
2018-12-08T01:34:38.956Z,16.30
2018-12-08T01:37:06.431Z,16.60
2018-12-08T01:39:34.355Z,16.33
2018-12-08T01:42:02.002Z,17.07
2018-12-08T01:44:30.564Z,17.83
2018-12-08T01:46:58.076Z,17.13
2018-12-08T01:49:25.556Z,19.23
2018-12-08T01:51:53.172Z,19.77
2018-12-08T01:54:20.695Z,19.47
2018-12-08T01:56:48.221Z,19.33
2018-12-08T01:59:15.739Z,20.53
2018-12-08T02:01:43.261Z,21.00
2018-12-08T02:04:10.799Z,23.80
2018-12-08T02:06:38.287Z,24.63
2018-12-08T02:09:08.103Z,22.33
2018-12-08T02:11:35.759Z,22.93
2018-12-08T02:14:03.439Z,21.70
2018-12-08T02:16:31.059Z,23.00
2018-12-08T02:18:58.658Z,23.70
2018-12-08T02:21:26.325Z,24.43
2018-12-08T02:23:53.805Z,22.97
2018-12-08T02:26:21.284Z,22.63
2018-12-08T02:28:48.880Z,22.90
2018-12-08T02:31:16.369Z,22.63
2018-12-08T02:33:43.951Z,22.63
2018-12-08T02:36:11.484Z,22.83
2018-12-08T02:38:39.013Z,22.47
2018-12-08T02:41:07.692Z,21.87
2018-12-08T02:43:35.196Z,21.87
2018-12-08T02:46:02.692Z,22.07
2018-12-08T02:48:30.195Z,21.03
2018-12-08T02:50:57.672Z,21.37
2018-12-08T02:53:25.383Z,20.53
2018-12-08T02:55:52.860Z,20.93
2018-12-08T02:58:20.627Z,30.13
2018-12-08T03:00:48.137Z,38.70
2018-12-08T03:03:15.615Z,23.27
2018-12-08T03:05:43.225Z,17.43
2018-12-08T03:08:10.701Z,14.23
2018-12-08T03:10:38.254Z,14.23
2018-12-08T03:13:07.581Z,10.50
2018-12-08T03:15:36.191Z,10.17
2018-12-08T03:18:04.002Z,9.53
2018-12-08T03:20:31.470Z,9.20
2018-12-08T03:22:59.950Z,9.33
2018-12-08T03:25:28.796Z,9.17
2018-12-08T03:27:56.547Z,7.57
2018-12-08T03:30:27.904Z,5.10
2018-12-08T03:32:55.475Z,6.57
2018-12-08T03:35:30.007Z,6.93
2018-12-08T03:37:58.855Z,7.00
2018-12-08T03:40:26.414Z,5.10
2018-12-08T03:42:54.228Z,5.73
2018-12-08T03:45:21.823Z,4.40
2018-12-08T03:47:49.327Z,4.10
2018-12-08T03:50:17.444Z,4.13
2018-12-08T03:52:44.947Z,3.77
2018-12-08T03:55:12.825Z,3.83
2018-12-08T03:57:40.311Z,3.70
2018-12-08T04:00:09.102Z,2.50
2018-12-08T04:02:36.613Z,1.50
2018-12-08T04:05:04.695Z,1.40
2018-12-08T04:07:32.358Z,1.60
2018-12-08T04:10:00.137Z,1.60
2018-12-08T04:12:27.610Z,1.43
2018-12-08T04:14:55.145Z,1.23
2018-12-08T04:17:22.623Z,1.00
2018-12-08T04:19:50.152Z,1.30
2018-12-08T04:22:17.641Z,1.30
2018-12-08T04:24:45.255Z,1.23
2018-12-08T04:27:12.739Z,1.37
2018-12-08T04:29:40.236Z,1.00
2018-12-08T04:34:42.825Z,0.80
2018-12-08T04:37:10.485Z,0.90
2018-12-08T04:39:37.961Z,0.80
2018-12-08T04:42:05.419Z,0.77
2018-12-08T04:44:32.933Z,0.97
2018-12-08T04:47:00.396Z,0.97
2018-12-08T04:49:27.953Z,1.00
2018-12-08T04:51:55.423Z,1.10
2018-12-08T04:54:23.071Z,1.40
2018-12-08T04:56:50.531Z,1.20
2018-12-08T04:59:17.991Z,0.87
2018-12-08T05:01:45.489Z,1.83
2018-12-08T05:04:12.975Z,1.20
2018-12-08T05:06:40.482Z,1.77
2018-12-08T05:09:07.971Z,1.03
2018-12-08T05:11:35.482Z,1.20
2018-12-08T05:14:03.024Z,1.33
2018-12-08T05:16:30.487Z,0.93
2018-12-08T05:18:59.124Z,1.20
2018-12-08T05:21:26.597Z,1.20
2018-12-08T05:23:54.061Z,1.73
2018-12-08T05:26:21.556Z,1.23
2018-12-08T05:28:49.015Z,1.43
2018-12-08T05:31:16.752Z,1.30
2018-12-08T05:33:44.229Z,1.20
2018-12-08T05:36:11.696Z,1.57
2018-12-08T05:38:39.236Z,1.33
2018-12-08T05:41:06.695Z,1.30
2018-12-08T05:43:34.194Z,0.73
2018-12-08T05:46:01.721Z,1.33
2018-12-08T05:48:29.243Z,1.60
2018-12-08T05:50:56.723Z,1.00
2018-12-08T05:53:24.183Z,1.30
2018-12-08T05:55:51.691Z,1.10
2018-12-08T05:58:19.166Z,0.87
2018-12-08T06:00:47.705Z,1.00
2018-12-08T06:03:15.191Z,1.23
2018-12-08T06:05:42.651Z,1.07
2018-12-08T06:08:10.163Z,1.20
2018-12-08T06:10:37.670Z,1.43
2018-12-08T06:13:05.215Z,1.80
2018-12-08T06:15:32.871Z,1.70
2018-12-08T06:18:00.355Z,1.63
2018-12-08T06:20:27.855Z,1.33
2018-12-08T06:22:55.335Z,1.50
2018-12-08T06:25:25.537Z,1.53
2018-12-08T06:28:01.877Z,1.47
2018-12-08T06:30:29.386Z,0.83
2018-12-08T06:32:56.875Z,1.40
2018-12-08T06:35:24.393Z,0.90
2018-12-08T06:37:51.902Z,1.20
2018-12-08T06:40:19.414Z,1.20
2018-12-08T06:42:46.940Z,1.00
2018-12-08T06:45:14.413Z,1.17
2018-12-08T06:47:41.902Z,1.73
2018-12-08T06:50:09.429Z,1.23
2018-12-08T06:52:36.919Z,1.20
2018-12-08T06:55:04.451Z,1.07
2018-12-08T06:57:31.924Z,1.37
2018-12-08T06:59:59.391Z,1.20
2018-12-08T07:02:26.976Z,0.80
2018-12-08T07:04:54.486Z,0.90
2018-12-08T07:07:22.039Z,1.17
2018-12-08T07:09:49.503Z,1.37
2018-12-08T07:12:16.995Z,1.57
2018-12-08T07:14:45.495Z,1.23
2018-12-08T07:17:13.098Z,1.70
2018-12-08T07:19:40.572Z,1.00
2018-12-08T07:22:08.071Z,1.13
2018-12-08T07:24:35.599Z,1.10
2018-12-08T07:27:03.064Z,1.60
2018-12-08T07:29:30.579Z,1.13
2018-12-08T07:31:58.047Z,1.30
2018-12-08T07:34:25.858Z,0.80
2018-12-08T07:36:53.444Z,1.37
2018-12-08T07:39:20.924Z,1.73
2018-12-08T07:41:48.539Z,0.83
2018-12-08T07:44:16.100Z,1.70
2018-12-08T07:46:43.739Z,0.83
2018-12-08T07:49:11.209Z,1.17
2018-12-08T07:51:38.747Z,0.93
2018-12-08T07:54:06.242Z,1.73
2018-12-08T07:56:33.828Z,1.20
2018-12-08T07:59:01.479Z,1.53
2018-12-08T08:01:31.007Z,1.03
2018-12-08T08:03:58.465Z,1.37
2018-12-08T08:06:26.080Z,1.60
2018-12-08T08:08:53.559Z,1.60
2018-12-08T08:11:21.079Z,1.23
2018-12-08T08:13:48.547Z,1.23
2018-12-08T08:16:16.077Z,1.23
2018-12-08T08:18:43.625Z,1.17
2018-12-08T08:21:11.300Z,1.10
2018-12-08T08:23:38.780Z,1.50
2018-12-08T08:26:06.265Z,0.97
2018-12-08T08:28:33.901Z,1.00
2018-12-08T08:31:01.424Z,1.00
2018-12-08T08:33:29.032Z,0.90
2018-12-08T08:35:56.664Z,1.30
2018-12-08T08:38:24.187Z,0.90
2018-12-08T08:40:51.664Z,1.20
2018-12-08T08:43:19.144Z,1.60
2018-12-08T08:45:46.850Z,1.23
2018-12-08T08:48:14.341Z,2.00
2018-12-08T08:50:41.825Z,0.80
2018-12-08T08:53:09.440Z,1.30
2018-12-08T08:55:36.913Z,1.20
2018-12-08T08:58:04.418Z,1.50
2018-12-08T09:00:31.884Z,1.40
2018-12-08T09:02:59.399Z,1.10
2018-12-08T09:05:26.933Z,1.63
2018-12-08T09:07:54.548Z,1.00
2018-12-08T09:10:22.046Z,1.30
2018-12-08T09:12:49.543Z,1.50
2018-12-08T09:15:17.049Z,1.70
2018-12-08T09:17:44.686Z,1.70
2018-12-08T09:20:12.428Z,1.37
2018-12-08T09:22:39.895Z,1.30
2018-12-08T09:25:08.109Z,2.03
2018-12-08T09:27:35.763Z,1.80
2018-12-08T09:30:05.167Z,1.77
2018-12-08T09:32:32.679Z,1.57
2018-12-08T09:35:00.156Z,1.50
2018-12-08T09:37:27.674Z,1.53
2018-12-08T09:39:57.087Z,2.00
2018-12-08T09:42:24.719Z,1.60
2018-12-08T09:44:52.398Z,1.67
2018-12-08T09:47:19.928Z,1.70
2018-12-08T09:49:47.475Z,1.93
2018-12-08T09:52:14.970Z,1.73
2018-12-08T09:54:42.659Z,2.40
2018-12-08T09:57:10.173Z,2.73
2018-12-08T09:59:37.702Z,2.40
2018-12-08T10:02:06.136Z,2.92
2018-12-08T10:04:33.608Z,2.60
2018-12-08T10:07:01.406Z,2.33
2018-12-08T10:09:28.895Z,2.70
2018-12-08T10:11:56.420Z,2.63
2018-12-08T10:14:24.001Z,2.37
2018-12-08T10:16:51.478Z,2.00
2018-12-08T10:19:19.331Z,1.83
2018-12-08T10:21:46.810Z,2.20
2018-12-08T10:24:14.283Z,1.97
2018-12-08T10:26:41.824Z,1.87
2018-12-08T10:29:09.448Z,2.10
2018-12-08T10:31:37.076Z,1.67
2018-12-08T10:34:04.539Z,2.07
2018-12-08T10:36:32.000Z,2.60
2018-12-08T10:38:59.512Z,2.43
2018-12-08T10:41:27.080Z,1.77
2018-12-08T10:43:54.607Z,2.47
2018-12-08T10:46:22.198Z,2.97
2018-12-08T10:48:49.903Z,1.67
2018-12-08T10:51:17.371Z,1.37
2018-12-08T10:53:44.846Z,1.67
2018-12-08T10:56:12.353Z,1.93
2018-12-08T10:58:39.868Z,2.00
2018-12-08T11:01:09.439Z,1.63
2018-12-08T11:03:46.147Z,1.60
2018-12-08T11:06:14.226Z,2.30
2018-12-08T11:08:41.782Z,2.00
2018-12-08T11:11:09.259Z,1.93
2018-12-08T11:13:36.805Z,2.40
2018-12-08T11:16:04.361Z,2.23
2018-12-08T11:18:31.963Z,2.40
2018-12-08T11:20:59.452Z,2.10
2018-12-08T11:23:28.052Z,2.30
2018-12-08T11:25:55.683Z,2.50
2018-12-08T11:28:23.258Z,2.80
2018-12-08T11:30:50.983Z,3.13
2018-12-08T11:33:18.484Z,3.40
2018-12-08T11:35:45.980Z,2.90
2018-12-08T11:38:15.512Z,3.23
2018-12-08T11:40:43.029Z,3.20
2018-12-08T11:43:11.628Z,3.27
2018-12-08T11:45:39.154Z,3.20
2018-12-08T11:48:06.837Z,3.40
2018-12-08T11:50:34.435Z,4.10
2018-12-08T11:53:01.958Z,5.60
2018-12-08T11:55:30.341Z,3.57
2018-12-08T11:57:58.304Z,2.53
2018-12-08T12:00:27.674Z,1.87
2018-12-08T12:02:55.932Z,1.87
2018-12-08T12:05:23.719Z,2.30
2018-12-08T12:07:51.295Z,1.60
2018-12-08T12:10:18.811Z,1.70
2018-12-08T12:12:46.310Z,1.23
2018-12-08T12:15:13.840Z,1.23
2018-12-08T12:17:41.407Z,1.50
2018-12-08T12:20:08.986Z,1.30
2018-12-08T12:22:36.631Z,1.27
2018-12-08T12:25:05.801Z,1.30
2018-12-08T12:27:33.357Z,1.80
2018-12-08T12:30:00.920Z,2.10
2018-12-08T12:32:28.462Z,2.03
2018-12-08T12:34:55.922Z,1.67
2018-12-08T12:37:23.394Z,2.60
2018-12-08T12:39:50.900Z,2.37
2018-12-08T12:42:18.411Z,2.80
2018-12-08T12:44:45.917Z,2.73
2018-12-08T12:47:13.392Z,2.30
2018-12-08T12:49:40.920Z,2.20
2018-12-08T12:52:08.602Z,1.87
2018-12-08T12:54:37.203Z,2.30
2018-12-08T12:57:04.757Z,2.67
2018-12-08T12:59:32.241Z,2.50
2018-12-08T13:01:59.756Z,2.57
2018-12-08T13:04:27.249Z,2.40
2018-12-08T13:07:15.075Z,2.73
2018-12-08T13:09:55.952Z,2.60
2018-12-08T13:12:30.604Z,1.80
2018-12-08T13:15:02.355Z,2.73
2018-12-08T13:17:34.195Z,4.17
2018-12-08T13:20:06.376Z,2.40
2018-12-08T13:22:37.809Z,2.43
2018-12-08T13:25:21.735Z,2.00
2018-12-08T13:27:53.307Z,1.90
2018-12-08T13:37:14.188Z,1.80
2018-12-08T13:39:44.688Z,1.80
2018-12-08T13:42:15.073Z,2.53
2018-12-08T13:44:45.620Z,1.73
2018-12-08T13:47:16.000Z,1.80
2018-12-08T13:49:46.552Z,1.90
2018-12-08T13:52:16.980Z,1.50
2018-12-08T13:54:47.751Z,2.73
2018-12-08T13:57:19.035Z,3.00
2018-12-08T13:59:51.196Z,2.17
2018-12-08T14:02:21.750Z,1.70
2018-12-08T14:04:52.229Z,2.00
2018-12-08T14:07:22.387Z,2.40
2018-12-08T14:09:52.489Z,2.20
2018-12-08T14:12:22.288Z,2.37
2018-12-08T14:14:51.908Z,2.40
2018-12-08T14:17:21.778Z,2.50
2018-12-08T14:19:51.727Z,2.53
2018-12-08T14:22:21.620Z,2.87
2018-12-08T14:24:51.556Z,2.60
2018-12-08T14:27:21.472Z,2.90
2018-12-08T14:29:51.391Z,2.93
2018-12-08T14:32:21.283Z,2.73
2018-12-08T14:34:51.118Z,3.53
2018-12-08T14:37:21.071Z,2.63
2018-12-08T14:39:51.383Z,2.50
2018-12-08T14:42:21.489Z,2.83
2018-12-08T14:44:51.691Z,2.93
2018-12-08T14:47:21.544Z,3.57
2018-12-08T14:49:51.327Z,4.43
2018-12-08T14:52:21.266Z,4.43
2018-12-08T14:54:51.167Z,4.57
2018-12-08T14:57:20.911Z,4.67
2018-12-08T14:59:50.680Z,5.27
2018-12-08T15:02:20.504Z,6.70
2018-12-08T15:04:50.293Z,5.70
2018-12-08T15:07:20.016Z,5.27
2018-12-08T15:09:49.758Z,5.77
2018-12-08T15:12:20.586Z,6.33
2018-12-08T15:14:50.541Z,6.03
2018-12-08T15:17:20.215Z,9.53
2018-12-08T15:19:49.891Z,8.17
2018-12-08T15:22:19.589Z,6.83
2018-12-08T15:24:49.136Z,6.30
2018-12-08T15:27:18.897Z,5.80
2018-12-08T15:29:48.362Z,7.73
2018-12-08T15:32:17.733Z,9.33
2018-12-08T15:34:47.108Z,7.73
2018-12-08T15:37:16.440Z,6.97
2018-12-08T15:39:45.829Z,7.07
2018-12-08T15:42:15.113Z,6.83
2018-12-08T15:44:44.410Z,6.57
2018-12-08T15:47:13.635Z,6.80
2018-12-08T15:49:44.061Z,6.77
2018-12-08T15:52:13.188Z,6.37
2018-12-08T15:54:42.289Z,7.10
2018-12-08T15:57:12.493Z,7.27
2018-12-08T15:59:42.594Z,7.57
2018-12-08T16:02:11.739Z,6.80
2018-12-08T16:04:40.933Z,6.17
2018-12-08T16:07:10.158Z,4.03
2018-12-08T16:09:39.375Z,3.53
2018-12-08T16:12:08.740Z,3.90
2018-12-08T16:14:37.915Z,3.60
2018-12-08T16:17:07.183Z,3.83
2018-12-08T16:19:37.519Z,4.77
2018-12-08T16:22:07.781Z,4.77
2018-12-08T16:24:37.116Z,5.80
2018-12-08T16:27:06.283Z,8.13
2018-12-08T16:29:35.448Z,9.67
2018-12-08T16:32:04.659Z,9.63
2018-12-08T16:34:33.900Z,11.83
2018-12-08T16:37:03.409Z,11.33
2018-12-08T16:39:32.577Z,13.33
2018-12-08T16:42:01.743Z,16.50
2018-12-08T16:44:30.949Z,10.90
2018-12-08T16:47:00.120Z,7.13
2018-12-08T16:49:29.428Z,9.63
2018-12-08T16:51:58.571Z,8.57
2018-12-08T16:54:28.673Z,10.20
2018-12-08T16:56:57.773Z,11.30
2018-12-08T16:59:26.871Z,7.93
2018-12-08T17:01:56.139Z,6.70
2018-12-08T17:04:25.199Z,8.63
2018-12-08T17:06:54.279Z,5.57
2018-12-08T17:09:23.325Z,9.20
2018-12-08T17:11:53.338Z,8.23
2018-12-08T17:14:22.523Z,7.50
2018-12-08T17:16:51.551Z,8.20
2018-12-08T17:19:20.574Z,11.63
2018-12-08T17:21:49.591Z,10.65
2018-12-08T17:24:18.530Z,14.40
2018-12-08T17:26:47.547Z,8.43
2018-12-08T17:29:16.565Z,8.47
2018-12-08T17:31:45.587Z,9.80
2018-12-08T17:34:14.651Z,14.43
2018-12-08T17:36:43.774Z,16.17
2018-12-08T17:39:12.951Z,9.60
2018-12-08T17:41:41.961Z,4.40
2018-12-08T17:44:11.090Z,4.90
2018-12-08T17:46:40.141Z,3.90
2018-12-08T17:49:09.255Z,4.93
2018-12-08T17:51:38.522Z,4.60
2018-12-08T17:54:07.955Z,8.27
2018-12-08T17:56:37.161Z,8.47
2018-12-08T17:59:06.326Z,7.70
2018-12-08T18:01:35.469Z,7.37
2018-12-08T18:04:04.771Z,10.37
2018-12-08T18:06:34.811Z,9.70
2018-12-08T18:09:07.105Z,8.17
2018-12-08T18:11:36.568Z,9.57
2018-12-08T18:14:05.541Z,9.93
2018-12-08T18:16:34.561Z,8.93
2018-12-08T18:19:03.571Z,7.43
2018-12-08T18:21:32.764Z,7.47
2018-12-08T18:24:02.103Z,6.53
2018-12-08T18:26:31.083Z,6.83
2018-12-08T18:29:00.201Z,7.13
2018-12-08T18:31:29.215Z,7.40
2018-12-08T18:33:58.208Z,6.50
2018-12-08T18:36:27.292Z,6.67
2018-12-08T18:38:56.266Z,6.07
2018-12-08T18:41:25.267Z,6.73
2018-12-08T18:43:54.311Z,8.07
2018-12-08T18:46:24.272Z,7.73
2018-12-08T18:48:53.573Z,9.10
2018-12-08T18:51:22.565Z,13.10
2018-12-08T18:53:51.590Z,12.50
2018-12-08T18:56:20.640Z,8.03
2018-12-08T18:58:53.454Z,7.97
2018-12-08T19:01:22.541Z,9.10
2018-12-08T19:03:51.607Z,8.73
2018-12-08T19:06:20.664Z,14.93
2018-12-08T19:08:49.851Z,14.63
2018-12-08T19:11:19.958Z,11.33
2018-12-08T19:13:49.175Z,11.10
2018-12-08T19:16:18.276Z,11.90
2018-12-08T19:18:47.356Z,11.57
2018-12-08T19:21:16.431Z,9.37
2018-12-08T19:23:45.484Z,6.87
2018-12-08T19:26:14.536Z,6.20
2018-12-08T19:28:43.622Z,6.80
2018-12-08T19:31:13.852Z,5.17
2018-12-08T19:33:42.930Z,5.57
2018-12-08T19:36:12.043Z,5.87
2018-12-08T19:38:41.183Z,5.83
2018-12-08T19:41:10.285Z,6.23
2018-12-08T19:43:39.705Z,6.70
2018-12-08T19:46:08.832Z,7.07
2018-12-08T19:48:38.010Z,6.93
2018-12-08T19:51:07.227Z,6.50
2018-12-08T19:53:36.434Z,8.10
2018-12-08T19:56:05.605Z,11.03
2018-12-08T19:58:34.783Z,9.80
2018-12-08T20:01:04.068Z,9.40
2018-12-08T20:03:33.432Z,9.87
2018-12-08T20:06:02.633Z,13.07
2018-12-08T20:08:31.834Z,12.50
2018-12-08T20:11:01.089Z,10.88
2018-12-08T20:13:30.240Z,12.90
2018-12-08T20:15:59.845Z,15.10
2018-12-08T20:18:28.998Z,12.40
2018-12-08T20:20:58.124Z,12.03
2018-12-08T20:23:27.307Z,10.47
2018-12-08T20:25:56.504Z,10.23
2018-12-08T20:28:25.770Z,9.97
2018-12-08T20:30:54.919Z,10.03
2018-12-08T20:33:24.787Z,8.93
2018-12-08T20:35:53.899Z,8.87
2018-12-08T20:38:23.101Z,7.63
2018-12-08T20:40:52.277Z,7.97
2018-12-08T20:43:21.412Z,8.90
2018-12-08T20:45:50.684Z,8.90
2018-12-08T20:48:19.783Z,8.37
2018-12-08T20:50:48.852Z,10.50
2018-12-08T20:53:17.921Z,14.17
2018-12-08T20:55:47.012Z,13.63
2018-12-08T20:58:17.074Z,11.63
2018-12-08T21:00:46.156Z,10.03
2018-12-08T21:03:15.295Z,7.13
2018-12-08T21:05:44.334Z,5.57
2018-12-08T21:08:13.494Z,6.50
2018-12-08T21:10:43.568Z,6.03
2018-12-08T21:13:12.546Z,5.00
2018-12-08T21:15:41.568Z,4.30
2018-12-08T21:18:10.604Z,4.50
2018-12-08T21:20:39.813Z,4.30
2018-12-08T21:23:09.704Z,4.50
2018-12-08T21:25:38.645Z,5.47
2018-12-08T21:28:07.672Z,5.50
2018-12-08T21:30:37.536Z,10.30
2018-12-08T21:33:06.515Z,8.53
2018-12-08T21:35:35.444Z,5.80
2018-12-08T21:38:04.537Z,6.67
2018-12-08T21:40:33.495Z,5.60
2018-12-08T21:43:02.439Z,7.90
2018-12-08T21:45:31.423Z,11.73
2018-12-08T21:48:00.355Z,13.10
2018-12-08T21:50:29.403Z,13.70
2018-12-08T21:52:58.321Z,9.03
2018-12-08T21:55:27.243Z,8.30
2018-12-08T21:57:56.191Z,6.87
2018-12-08T22:00:25.130Z,6.30
2018-12-08T22:02:54.318Z,5.53
2018-12-08T22:05:23.289Z,5.47
2018-12-08T22:07:52.248Z,5.20
2018-12-08T22:10:21.225Z,5.70
2018-12-08T22:12:50.175Z,5.60
2018-12-08T22:15:19.139Z,7.07
2018-12-08T22:17:48.084Z,8.33
2018-12-08T22:20:17.056Z,8.57
2018-12-08T22:22:45.988Z,7.20
2018-12-08T22:25:14.945Z,7.47
2018-12-08T22:27:43.873Z,10.67
2018-12-08T22:30:12.802Z,10.73
2018-12-08T22:32:41.782Z,9.97
2018-12-08T22:35:10.742Z,6.30
2018-12-08T22:37:39.856Z,7.47
2018-12-08T22:40:09.151Z,8.30
2018-12-08T22:42:38.140Z,7.10
2018-12-08T22:45:07.202Z,6.70
2018-12-08T22:47:36.151Z,5.90
2018-12-08T22:50:06.040Z,5.92
2018-12-08T22:52:35.191Z,6.07
2018-12-08T22:55:04.678Z,6.23
2018-12-08T22:57:33.585Z,6.43
2018-12-08T23:00:13.427Z,8.30
2018-12-08T23:02:42.383Z,9.27
2018-12-08T23:05:11.302Z,9.27
2018-12-08T23:07:40.485Z,8.67
2018-12-08T23:10:09.418Z,8.23
2018-12-08T23:12:39.239Z,10.47
2018-12-08T23:15:08.241Z,9.47
2018-12-08T23:17:37.211Z,9.13
2018-12-08T23:20:07.244Z,9.77
2018-12-08T23:22:36.319Z,9.57
2018-12-08T23:25:05.489Z,9.77
2018-12-08T23:27:34.433Z,9.37
2018-12-08T23:30:05.987Z,9.07
2018-12-08T23:32:34.937Z,7.23
2018-12-08T23:35:05.239Z,7.20
2018-12-08T23:37:34.194Z,7.50
2018-12-08T23:40:05.172Z,6.80
2018-12-08T23:42:34.183Z,6.50
2018-12-08T23:45:03.277Z,6.40
2018-12-08T23:47:32.393Z,6.80
2018-12-08T23:50:01.359Z,4.73
2018-12-08T23:52:30.317Z,5.77
2018-12-08T23:54:59.327Z,4.90
2018-12-08T23:57:28.274Z,6.23
2018-12-08T23:59:57.544Z,7.33
